Time;durP1;ratioP1;P1;durP2;ratioP2;P2;SDS_P1;SDS_P2;PMS_P1;PMS_P2;Temp;Humidity;BMP_temperature;BMP_pressure;BME280_temperature;BME280_humidity;BME280_pressure;Samples;Min_cycle;Max_cycle;Signal;HPM_P1;HPM_P2
2022/06/28 00:01:22;;;;;;;9.65;8.43;;;;;;;;;;5010755;28;20471;-76
2022/06/28 00:03:47;;;;;;;11.63;8.48;;;;;;;;;;5010589;28;20124;-77
2022/06/28 00:06:13;;;;;;;9.55;8.25;;;;;;;;;;5024601;28;20057;-75
2022/06/28 00:08:38;;;;;;;8.95;8.05;;;;;;;;;;5010798;28;20061;-76
2022/06/28 00:11:04;;;;;;;9.75;8.75;;;;;;;;;;5009016;28;20022;-76
2022/06/28 00:13:29;;;;;;;9.57;8.63;;;;;;;;;;5004910;28;20035;-76
2022/06/28 00:16:07;;;;;;;9.43;8.52;;;;;;;;;;4997044;28;20038;-78
2022/06/28 00:18:36;;;;;;;10.07;8.70;;;;;;;;;;5002754;28;20085;-76
2022/06/28 00:21:02;;;;;;;9.35;8.20;;;;;;;;;;5002449;28;20034;-77
2022/06/28 00:23:28;;;;;;;9.35;7.78;;;;;;;;;;5002419;28;20120;-75
2022/06/28 00:25:54;;;;;;;10.15;9.15;;;;;;;;;;4993530;28;20054;-75
2022/06/28 00:28:19;;;;;;;10.55;9.43;;;;;;;;;;4977101;28;20034;-76
2022/06/28 00:30:45;;;;;;;9.45;8.52;;;;;;;;;;4993323;28;20088;-76
2022/06/28 00:33:11;;;;;;;11.40;9.18;;;;;;;;;;5008197;28;20084;-75
2022/06/28 00:35:36;;;;;;;8.63;7.85;;;;;;;;;;5008164;28;20080;-75
2022/06/28 00:38:02;;;;;;;11.20;8.40;;;;;;;;;;5006623;28;20046;-76
2022/06/28 00:40:27;;;;;;;9.50;8.60;;;;;;;;;;5007041;28;20400;-76
2022/06/28 00:42:53;;;;;;;11.18;8.15;;;;;;;;;;5004523;28;20030;-76
2022/06/28 00:45:18;;;;;;;12.82;8.38;;;;;;;;;;4994124;28;20050;-76
2022/06/28 00:47:44;;;;;;;10.27;8.60;;;;;;;;;;4997197;28;20480;-77
2022/06/28 00:50:11;;;;;;;10.00;8.07;;;;;;;;;;5010271;28;20153;-76
2022/06/28 00:52:56;;;;;;;9.98;8.90;;;;;;;;;;5009170;28;20030;-77
2022/06/28 00:55:22;;;;;;;11.37;9.10;;;;;;;;;;5024627;28;20033;-76
2022/06/28 00:57:47;;;;;;;13.20;8.77;;;;;;;;;;5022622;28;20106;-76
2022/06/28 01:00:13;;;;;;;10.40;9.40;;;;;;;;;;5009864;28;20034;-76
2022/06/28 01:02:38;;;;;;;10.85;9.13;;;;;;;;;;5006116;28;20026;-76
2022/06/28 01:05:04;;;;;;;10.48;9.20;;;;;;;;;;5008589;28;20030;-75
2022/06/28 01:07:29;;;;;;;10.43;9.43;;;;;;;;;;5024028;28;20029;-76
2022/06/28 01:09:56;;;;;;;10.65;8.70;;;;;;;;;;4995659;28;20034;-77
2022/06/28 01:12:21;;;;;;;10.48;9.25;;;;;;;;;;4979124;28;20042;-76
2022/06/28 01:14:47;;;;;;;11.02;9.68;;;;;;;;;;5007730;28;20034;-75
2022/06/28 01:17:35;;;;;;;10.93;9.45;;;;;;;;;;4993520;28;20035;-75
2022/06/28 01:20:21;;;;;;;9.80;8.80;;;;;;;;;;5002920;28;20049;-76
2022/06/28 01:23:10;;;;;;;12.10;9.50;;;;;;;;;;5003537;28;20393;-76
2022/06/28 01:25:35;;;;;;;13.63;9.45;;;;;;;;;;5013379;28;20058;-76
2022/06/28 01:28:01;;;;;;;11.38;10.20;;;;;;;;;;4991396;28;20480;-76
2022/06/28 01:30:27;;;;;;;12.05;9.57;;;;;;;;;;4990743;28;20049;-76
2022/06/28 01:33:02;;;;;;;15.90;9.68;;;;;;;;;;4998292;28;20029;-76
2022/06/28 01:35:28;;;;;;;14.18;8.90;;;;;;;;;;5014788;28;20109;-75
2022/06/28 01:37:53;;;;;;;11.20;9.82;;;;;;;;;;5014917;28;20061;-76
2022/06/28 01:40:20;;;;;;;10.55;9.45;;;;;;;;;;5014256;28;20036;-76
2022/06/28 01:42:48;;;;;;;10.00;9.00;;;;;;;;;;4998062;28;20053;-77
2022/06/28 01:45:13;;;;;;;11.27;9.18;;;;;;;;;;5014056;28;20054;-77
2022/06/28 01:47:44;;;;;;;11.70;9.88;;;;;;;;;;5016824;28;20099;-75
2022/06/28 01:50:28;;;;;;;13.63;10.05;;;;;;;;;;5019386;28;20041;-76
2022/06/28 01:52:54;;;;;;;12.80;9.43;;;;;;;;;;5016562;28;20407;-76
2022/06/28 01:55:49;;;;;;;11.98;9.95;;;;;;;;;;5015369;28;20030;-75
2022/06/28 01:58:39;;;;;;;15.15;10.70;;;;;;;;;;4996249;28;20045;-76
2022/06/28 02:01:04;;;;;;;11.20;10.00;;;;;;;;;;5026862;28;20030;-77
2022/06/28 02:03:30;;;;;;;11.13;9.15;;;;;;;;;;5025467;28;20025;-79
2022/06/28 02:06:10;;;;;;;12.52;9.40;;;;;;;;;;5001218;28;20040;-76
2022/06/28 02:08:39;;;;;;;14.95;9.50;;;;;;;;;;5032881;28;20033;-76
2022/06/28 02:11:11;;;;;;;10.70;9.50;;;;;;;;;;5002788;28;20021;-75
2022/06/28 02:13:48;;;;;;;12.57;9.05;;;;;;;;;;5030792;28;20151;-75
2022/06/28 02:16:13;;;;;;;9.85;8.85;;;;;;;;;;4983920;28;20125;-75
2022/06/28 02:18:39;;;;;;;14.63;10.20;;;;;;;;;;5007764;28;20492;-76
2022/06/28 02:21:06;;;;;;;10.45;9.07;;;;;;;;;;5021039;28;20038;-76
2022/06/28 02:23:32;;;;;;;14.65;9.95;;;;;;;;;;5024268;28;20037;-76
2022/06/28 02:25:58;;;;;;;14.18;10.07;;;;;;;;;;5009164;28;20041;-75
2022/06/28 02:28:24;;;;;;;11.63;10.10;;;;;;;;;;5022443;28;20037;-77
2022/06/28 02:30:51;;;;;;;13.63;9.60;;;;;;;;;;5011081;28;20038;-75
2022/06/28 02:33:16;;;;;;;11.88;9.52;;;;;;;;;;5021274;28;20072;-76
2022/06/28 02:41:11;;;;;;;11.02;8.10;;;;;;;;;;5016731;28;20115;-76
2022/06/28 02:43:37;;;;;;;10.40;8.10;;;;;;;;;;4998488;28;20029;-77
2022/06/28 02:46:02;;;;;;;11.93;9.07;;;;;;;;;;5019066;28;20046;-75
2022/06/28 02:48:28;;;;;;;13.52;9.00;;;;;;;;;;5027284;28;20036;-77
2022/06/28 02:50:53;;;;;;;10.35;9.05;;;;;;;;;;5028094;28;20037;-76
2022/06/28 02:53:18;;;;;;;11.85;9.10;;;;;;;;;;5024205;28;20517;-76
2022/06/28 02:55:44;;;;;;;11.35;9.50;;;;;;;;;;5026129;28;20034;-76
2022/06/28 02:58:09;;;;;;;12.57;9.32;;;;;;;;;;5029692;28;20037;-77
2022/06/28 03:00:35;;;;;;;13.57;9.00;;;;;;;;;;5027129;28;20408;-75
2022/06/28 03:03:00;;;;;;;13.75;9.80;;;;;;;;;;5009945;28;20480;-76
2022/06/28 03:05:26;;;;;;;13.40;8.80;;;;;;;;;;5011411;28;20034;-76
2022/06/28 03:07:52;;;;;;;10.98;9.45;;;;;;;;;;5007467;28;20041;-77
2022/06/28 03:10:19;;;;;;;11.57;8.70;;;;;;;;;;5023630;28;20457;-76
2022/06/28 03:12:45;;;;;;;10.73;8.20;;;;;;;;;;5004773;28;20479;-76
2022/06/28 03:15:11;;;;;;;14.05;9.18;;;;;;;;;;5007917;28;20030;-77
2022/06/28 03:17:38;;;;;;;10.27;8.85;;;;;;;;;;5006565;28;20121;-76
2022/06/28 03:20:04;;;;;;;10.10;8.75;;;;;;;;;;5021572;28;20118;-77
2022/06/28 03:22:29;;;;;;;10.05;9.10;;;;;;;;;;5002938;28;20088;-76
2022/06/28 03:24:56;;;;;;;9.27;8.15;;;;;;;;;;5018047;28;20054;-76
2022/06/28 03:27:21;;;;;;;9.77;7.80;;;;;;;;;;5022615;28;20087;-76
2022/06/28 03:29:48;;;;;;;12.00;8.35;;;;;;;;;;4986319;28;20044;-77
2022/06/28 03:32:20;;;;;;;12.18;8.68;;;;;;;;;;5004864;28;20043;-76
2022/06/28 03:34:45;;;;;;;10.30;8.30;;;;;;;;;;5003313;28;20129;-76
2022/06/28 03:37:16;;;;;;;14.07;8.40;;;;;;;;;;5001844;28;20381;-77
2022/06/28 03:39:45;;;;;;;12.02;9.38;;;;;;;;;;4986693;28;20468;-77
2022/06/28 03:42:11;;;;;;;16.05;12.95;;;;;;;;;;4999702;28;20061;-77
2022/06/28 03:44:39;;;;;;;11.02;9.80;;;;;;;;;;5019042;28;20037;-77
2022/06/28 03:47:06;;;;;;;12.13;9.82;;;;;;;;;;4996308;28;20439;-77
2022/06/28 03:49:50;;;;;;;9.98;8.98;;;;;;;;;;5021578;28;20049;-77
2022/06/28 03:52:34;;;;;;;13.25;9.50;;;;;;;;;;4997988;28;20039;-77
2022/06/28 03:55:11;;;;;;;11.27;8.25;;;;;;;;;;5029830;28;20522;-76
2022/06/28 03:57:48;;;;;;;8.85;7.95;;;;;;;;;;4996769;28;20821;-77
2022/06/28 04:00:15;;;;;;;9.05;8.15;;;;;;;;;;5004456;28;20131;-76
2022/06/28 04:02:43;;;;;;;10.52;9.35;;;;;;;;;;4987064;28;20028;-77
2022/06/28 04:05:18;;;;;;;12.83;8.57;;;;;;;;;;4995838;28;20129;-77
2022/06/28 04:07:44;;;;;;;8.90;8.00;;;;;;;;;;5006236;28;20847;-77
2022/06/28 04:10:09;;;;;;;11.27;8.80;;;;;;;;;;4994384;28;20032;-76
2022/06/28 04:12:36;;;;;;;9.20;8.40;;;;;;;;;;4991049;28;20124;-76
2022/06/28 04:15:15;;;;;;;18.40;8.88;;;;;;;;;;5025092;28;20025;-76
2022/06/28 04:17:41;;;;;;;10.75;8.40;;;;;;;;;;5007099;28;20117;-77
2022/06/28 04:20:44;;;;;;;10.23;8.50;;;;;;;;;;4971334;28;20510;-78
2022/06/28 04:23:10;;;;;;;11.40;8.85;;;;;;;;;;5001554;28;20060;-78
2022/06/28 04:25:37;;;;;;;9.95;8.80;;;;;;;;;;5025138;28;20095;-77
2022/06/28 04:28:12;;;;;;;10.73;9.10;;;;;;;;;;5019218;28;20030;-78
2022/06/28 04:30:47;;;;;;;11.25;8.88;;;;;;;;;;5008469;28;20033;-75
2022/06/28 04:33:13;;;;;;;9.20;8.30;;;;;;;;;;5003633;28;20042;-77
2022/06/28 04:35:38;;;;;;;10.68;8.65;;;;;;;;;;5020543;28;20108;-78
2022/06/28 04:38:04;;;;;;;11.60;8.30;;;;;;;;;;5017498;28;20034;-78
2022/06/28 04:40:41;;;;;;;9.75;8.20;;;;;;;;;;5021000;28;20029;-78
2022/06/28 04:43:32;;;;;;;9.57;7.50;;;;;;;;;;4998151;28;20497;-78
2022/06/28 04:45:59;;;;;;;10.52;8.07;;;;;;;;;;5018857;28;20041;-76
2022/06/28 04:48:27;;;;;;;11.85;9.70;;;;;;;;;;5024281;28;20034;-80
2022/06/28 04:50:54;;;;;;;9.70;8.75;;;;;;;;;;5013058;28;20030;-80
2022/06/28 04:53:20;;;;;;;10.02;8.88;;;;;;;;;;4978740;28;20036;-79
2022/06/28 04:55:50;;;;;;;14.23;10.05;;;;;;;;;;4993039;28;20469;-79
2022/06/28 04:58:16;;;;;;;13.18;9.88;;;;;;;;;;4998503;28;20120;-80
2022/06/28 05:00:42;;;;;;;15.10;10.50;;;;;;;;;;4997225;28;20025;-79
2022/06/28 05:03:13;;;;;;;13.10;11.23;;;;;;;;;;5015977;28;20071;-78
2022/06/28 05:05:57;;;;;;;10.88;9.73;;;;;;;;;;5018850;28;20084;-78
2022/06/28 05:08:23;;;;;;;14.07;10.70;;;;;;;;;;5015806;28;20072;-79
2022/06/28 05:10:57;;;;;;;10.98;9.68;;;;;;;;;;5014133;28;20053;-79
2022/06/28 05:13:52;;;;;;;11.02;9.45;;;;;;;;;;5031946;28;20041;-79
2022/06/28 05:16:19;;;;;;;12.93;10.00;;;;;;;;;;4997788;28;20037;-79
2022/06/28 05:18:44;;;;;;;12.80;10.63;;;;;;;;;;4994073;28;20540;-78
2022/06/28 05:21:13;;;;;;;12.65;10.05;;;;;;;;;;5004866;28;20034;-79
2022/06/28 05:23:40;;;;;;;11.48;10.27;;;;;;;;;;5005714;28;20072;-78
2022/06/28 05:26:25;;;;;;;17.80;10.48;;;;;;;;;;5009003;28;20048;-79
2022/06/28 05:29:23;;;;;;;12.88;10.50;;;;;;;;;;5000495;28;20033;-80
2022/06/28 05:31:49;;;;;;;12.98;10.50;;;;;;;;;;5024821;28;20512;-80
2022/06/28 05:34:14;;;;;;;11.00;9.88;;;;;;;;;;5030420;28;20124;-78
2022/06/28 05:36:41;;;;;;;15.98;10.25;;;;;;;;;;4984368;28;20053;-80
2022/06/28 05:39:08;;;;;;;13.70;10.73;;;;;;;;;;4998244;28;20493;-80
2022/06/28 05:41:35;;;;;;;15.30;10.57;;;;;;;;;;5005552;28;20088;-80
2022/06/28 05:44:00;;;;;;;12.38;9.68;;;;;;;;;;4994351;28;20030;-79
2022/06/28 05:46:26;;;;;;;15.73;10.95;;;;;;;;;;4983104;28;20030;-79
2022/06/28 05:48:52;;;;;;;12.43;10.25;;;;;;;;;;5015807;28;20025;-79
2022/06/28 05:51:17;;;;;;;14.10;10.30;;;;;;;;;;5016988;28;20034;-79
2022/06/28 05:53:46;;;;;;;11.32;10.13;;;;;;;;;;5001713;28;20470;-79
2022/06/28 05:56:11;;;;;;;13.18;10.65;;;;;;;;;;5031598;28;20515;-79
2022/06/28 05:58:37;;;;;;;11.25;10.15;;;;;;;;;;5015190;28;20025;-80
2022/06/28 06:01:03;;;;;;;18.40;10.02;;;;;;;;;;5011067;28;20041;-80
2022/06/28 06:03:28;;;;;;;13.23;11.07;;;;;;;;;;5022785;28;20079;-80
2022/06/28 06:05:54;;;;;;;12.38;10.23;;;;;;;;;;4992555;28;20080;-79
2022/06/28 06:08:20;;;;;;;15.40;10.55;;;;;;;;;;5012262;28;20014;-79
2022/06/28 06:10:48;;;;;;;11.68;10.23;;;;;;;;;;5027225;28;20586;-79
2022/06/28 06:13:13;;;;;;;12.85;10.68;;;;;;;;;;5029104;28;20065;-79
2022/06/28 06:15:39;;;;;;;15.18;9.45;;;;;;;;;;5012191;28;20040;-80
2022/06/28 06:18:04;;;;;;;13.90;10.18;;;;;;;;;;5013235;28;20018;-80
2022/06/28 06:20:30;;;;;;;14.35;9.65;;;;;;;;;;5011347;28;20041;-80
2022/06/28 06:22:56;;;;;;;11.82;9.57;;;;;;;;;;5004945;28;20417;-79
2022/06/28 06:26:00;;;;;;;12.60;9.07;;;;;;;;;;5003571;28;20052;-80
2022/06/28 06:28:27;;;;;;;16.23;9.55;;;;;;;;;;4983541;28;20045;-80
2022/06/28 06:30:53;;;;;;;10.35;9.35;;;;;;;;;;4998863;28;20528;-80
2022/06/28 06:33:34;;;;;;;10.40;9.18;;;;;;;;;;4990332;28;20030;-80
2022/06/28 06:36:08;;;;;;;10.63;9.38;;;;;;;;;;5008357;28;20048;-80
2022/06/28 06:38:34;;;;;;;10.60;8.70;;;;;;;;;;5003698;28;20128;-82
2022/06/28 06:41:00;;;;;;;8.48;7.50;;;;;;;;;;5010957;28;20071;-79
2022/06/28 06:43:28;;;;;;;9.43;7.95;;;;;;;;;;5020747;28;20045;-79
2022/06/28 06:46:12;;;;;;;10.50;7.93;;;;;;;;;;5006079;28;20092;-79
2022/06/28 06:48:38;;;;;;;8.52;7.63;;;;;;;;;;5023102;28;20037;-78
2022/06/28 06:51:04;;;;;;;7.20;6.20;;;;;;;;;;5007987;28;20026;-79
2022/06/28 06:53:30;;;;;;;8.43;7.57;;;;;;;;;;4986727;28;20384;-79
2022/06/28 06:55:55;;;;;;;13.27;7.25;;;;;;;;;;5009246;28;20037;-79
2022/06/28 06:58:21;;;;;;;9.93;7.63;;;;;;;;;;5012538;28;20117;-79
2022/06/28 07:00:47;;;;;;;8.10;7.30;;;;;;;;;;5009320;28;20029;-80
2022/06/28 07:03:12;;;;;;;7.55;6.85;;;;;;;;;;5012389;28;20084;-80
2022/06/28 07:05:40;;;;;;;8.20;6.97;;;;;;;;;;5028058;28;20029;-82
2022/06/28 07:08:06;;;;;;;7.63;6.90;;;;;;;;;;5015951;28;20026;-79
2022/06/28 07:10:38;;;;;;;7.70;6.90;;;;;;;;;;4996457;28;20511;-80
2022/06/28 07:13:04;;;;;;;7.55;6.30;;;;;;;;;;5012232;28;20029;-79
2022/06/28 07:15:29;;;;;;;7.25;6.60;;;;;;;;;;4994912;28;20022;-79
2022/06/28 07:17:56;;;;;;;7.47;6.78;;;;;;;;;;5015073;28;20025;-83
2022/06/28 07:20:22;;;;;;;8.30;6.72;;;;;;;;;;5002011;28;20057;-79
2022/06/28 07:22:48;;;;;;;9.18;7.05;;;;;;;;;;5021058;28;20061;-79
2022/06/28 07:25:18;;;;;;;7.38;6.68;;;;;;;;;;4991336;28;20579;-80
2022/06/28 07:27:43;;;;;;;7.72;6.40;;;;;;;;;;4999650;28;20125;-79
2022/06/28 07:30:09;;;;;;;7.38;6.60;;;;;;;;;;5018032;28;20037;-79
2022/06/28 07:32:34;;;;;;;6.78;6.18;;;;;;;;;;5001584;28;20038;-80
2022/06/28 07:35:00;;;;;;;7.18;6.47;;;;;;;;;;4995951;28;20050;-81
2022/06/28 07:37:26;;;;;;;7.95;6.60;;;;;;;;;;5017210;28;20036;-79
2022/06/28 07:39:52;;;;;;;6.45;5.82;;;;;;;;;;5011980;28;20041;-78
2022/06/28 07:42:38;;;;;;;6.63;6.03;;;;;;;;;;5020075;28;20504;-81
2022/06/28 07:45:23;;;;;;;7.05;6.35;;;;;;;;;;5003051;28;20080;-80
2022/06/28 07:47:57;;;;;;;9.68;6.63;;;;;;;;;;5021718;28;20086;-80
2022/06/28 07:53:11;;;;;;;9.20;6.45;;;;;;;;;;5017523;28;20029;-80
2022/06/28 07:56:00;;;;;;;7.95;6.35;;;;;;;;;;5016589;28;20076;-80
2022/06/28 07:58:30;;;;;;;8.70;6.93;;;;;;;;;;5031247;28;20547;-81
2022/06/28 08:00:56;;;;;;;8.70;6.97;;;;;;;;;;4998712;28;20180;-80
2022/06/28 08:03:22;;;;;;;8.48;7.68;;;;;;;;;;5011927;28;20065;-80
2022/06/28 08:05:48;;;;;;;7.13;6.22;;;;;;;;;;5011431;28;20127;-81
2022/06/28 08:08:14;;;;;;;8.23;6.95;;;;;;;;;;5012216;28;20156;-80
2022/06/28 08:10:40;;;;;;;7.50;6.80;;;;;;;;;;5021275;28;20033;-80
2022/06/28 08:13:08;;;;;;;9.32;7.07;;;;;;;;;;4992167;28;20504;-79
2022/06/28 08:15:37;;;;;;;7.88;7.18;;;;;;;;;;5008434;28;20038;-81
2022/06/28 08:18:03;;;;;;;9.40;7.47;;;;;;;;;;5013137;28;20032;-79
2022/06/28 08:20:31;;;;;;;6.70;6.00;;;;;;;;;;4995282;28;20034;-80
2022/06/28 08:22:57;;;;;;;7.25;6.55;;;;;;;;;;5020150;28;20030;-80
2022/06/28 08:25:28;;;;;;;12.55;9.05;;;;;;;;;;5012593;28;20145;-79
2022/06/28 08:27:53;;;;;;;8.65;7.82;;;;;;;;;;4987420;28;20479;-80
2022/06/28 08:30:19;;;;;;;9.20;8.40;;;;;;;;;;4995547;28;20025;-81
2022/06/28 08:32:45;;;;;;;9.95;8.60;;;;;;;;;;4985291;28;20040;-82
2022/06/28 08:35:10;;;;;;;10.27;8.93;;;;;;;;;;5002151;28;20408;-79
2022/06/28 08:37:36;;;;;;;9.80;8.40;;;;;;;;;;5009065;28;20042;-80
2022/06/28 08:40:01;;;;;;;8.52;7.65;;;;;;;;;;5011483;28;20099;-84
2022/06/28 08:42:27;;;;;;;10.20;8.63;;;;;;;;;;4995159;28;20061;-79
2022/06/28 08:44:52;;;;;;;11.77;9.18;;;;;;;;;;5012544;28;20440;-80
2022/06/28 08:47:18;;;;;;;8.55;7.75;;;;;;;;;;5016553;28;20033;-80
2022/06/28 08:49:51;;;;;;;8.27;7.45;;;;;;;;;;5013994;28;20067;-81
2022/06/28 08:52:16;;;;;;;8.85;7.95;;;;;;;;;;4996339;28;20032;-80
2022/06/28 08:54:42;;;;;;;8.73;7.93;;;;;;;;;;5013809;28;20029;-80
2022/06/28 08:57:07;;;;;;;9.68;7.97;;;;;;;;;;5013034;28;20041;-79
2022/06/28 08:59:34;;;;;;;7.55;6.75;;;;;;;;;;5025778;28;20022;-80
2022/06/28 09:01:59;;;;;;;8.23;7.30;;;;;;;;;;5012762;28;20037;-80
2022/06/28 09:04:24;;;;;;;7.25;6.38;;;;;;;;;;5004359;28;20365;-79
2022/06/28 09:06:50;;;;;;;8.23;7.10;;;;;;;;;;4999281;28;20042;-79
2022/06/28 09:09:15;;;;;;;8.95;6.63;;;;;;;;;;5021128;28;20022;-81
2022/06/28 09:11:42;;;;;;;7.03;6.43;;;;;;;;;;5021101;28;20045;-79
2022/06/28 09:14:21;;;;;;;12.13;7.25;;;;;;;;;;4986897;28;20493;-80
2022/06/28 09:16:47;;;;;;;6.93;6.22;;;;;;;;;;5021665;28;20091;-80
2022/06/28 09:19:12;;;;;;;8.13;6.63;;;;;;;;;;5012247;28;20525;-80
2022/06/28 09:21:41;;;;;;;7.82;6.50;;;;;;;;;;5017404;28;20026;-80
2022/06/28 09:24:08;;;;;;;7.70;6.20;;;;;;;;;;5024110;28;20060;-80
2022/06/28 09:26:33;;;;;;;6.70;6.00;;;;;;;;;;5017451;28;20524;-79
2022/06/28 09:28:59;;;;;;;6.63;5.93;;;;;;;;;;5023346;28;20033;-80
2022/06/28 09:31:25;;;;;;;7.13;6.35;;;;;;;;;;5002759;28;20045;-81
2022/06/28 09:34:00;;;;;;;8.02;6.30;;;;;;;;;;5020532;28;20116;-80
2022/06/28 09:36:26;;;;;;;7.47;6.30;;;;;;;;;;5017186;28;20108;-80
2022/06/28 09:38:53;;;;;;;6.78;5.93;;;;;;;;;;5017988;28;20109;-81
2022/06/28 09:41:28;;;;;;;9.57;6.55;;;;;;;;;;5012853;28;20068;-79
2022/06/28 09:44:03;;;;;;;6.22;5.63;;;;;;;;;;5018288;28;20033;-80
2022/06/28 09:46:30;;;;;;;6.22;5.30;;;;;;;;;;5018066;28;20049;-80
2022/06/28 09:48:56;;;;;;;7.35;6.00;;;;;;;;;;5003285;28;20026;-81
2022/06/28 09:51:23;;;;;;;8.52;5.60;;;;;;;;;;5016091;28;20443;-82
2022/06/28 09:53:49;;;;;;;6.95;5.57;;;;;;;;;;5013470;28;20025;-80
2022/06/28 09:56:15;;;;;;;6.30;5.65;;;;;;;;;;5021321;28;20484;-80
2022/06/28 09:58:40;;;;;;;5.65;5.15;;;;;;;;;;5015191;28;20087;-80
2022/06/28 10:01:07;;;;;;;6.28;5.57;;;;;;;;;;5002616;28;20044;-80
2022/06/28 10:03:32;;;;;;;5.97;5.20;;;;;;;;;;5021354;28;20041;-80
2022/06/28 10:05:58;;;;;;;6.70;5.05;;;;;;;;;;5020871;28;20042;-81
2022/06/28 10:08:24;;;;;;;5.93;4.90;;;;;;;;;;5019000;28;20022;-80
2022/06/28 10:10:50;;;;;;;6.80;5.47;;;;;;;;;;5015377;28;20088;-80
2022/06/28 10:16:02;;;;;;;7.38;5.80;;;;;;;;;;5019751;28;20068;-85
2022/06/28 10:18:27;;;;;;;6.15;5.55;;;;;;;;;;5012784;28;20052;-82
2022/06/28 10:20:53;;;;;;;5.95;5.35;;;;;;;;;;5016077;28;20061;-80
2022/06/28 10:23:27;;;;;;;6.10;5.53;;;;;;;;;;5016460;28;20388;-80
2022/06/28 10:26:03;;;;;;;6.97;5.00;;;;;;;;;;5006390;28;20066;-80
2022/06/28 10:28:33;;;;;;;5.93;5.32;;;;;;;;;;5011023;28;20026;-79
2022/06/28 10:31:17;;;;;;;7.43;5.38;;;;;;;;;;5032633;28;20021;-82
2022/06/28 10:33:43;;;;;;;6.03;5.15;;;;;;;;;;5029487;28;20128;-79
2022/06/28 10:36:12;;;;;;;7.38;5.45;;;;;;;;;;5032475;28;20121;-81
2022/06/28 10:38:38;;;;;;;8.10;5.40;;;;;;;;;;4996342;28;20064;-80
2022/06/28 10:41:10;;;;;;;6.00;5.10;;;;;;;;;;4998763;28;20056;-79
2022/06/28 10:43:44;;;;;;;5.68;5.07;;;;;;;;;;4995634;28;20030;-80
2022/06/28 10:46:10;;;;;;;5.40;4.82;;;;;;;;;;5024196;28;20030;-80
2022/06/28 10:48:47;;;;;;;5.95;4.97;;;;;;;;;;5028484;28;20036;-81
2022/06/28 10:51:13;;;;;;;5.25;4.75;;;;;;;;;;5008123;28;20100;-81
2022/06/28 10:54:09;;;;;;;6.30;4.95;;;;;;;;;;4982578;28;20041;-80
2022/06/28 10:56:34;;;;;;;;;;;;;;;;;;5016926;28;20037;-80
2022/06/28 10:59:02;;;;;;;6.57;5.00;;;;;;;;;;5016604;28;19910;-81
2022/06/28 11:01:40;;;;;;;6.25;5.65;;;;;;;;;;5009508;28;20037;-80
2022/06/28 11:04:11;;;;;;;6.97;5.03;;;;;;;;;;5022595;28;20564;-82
2022/06/28 11:06:41;;;;;;;7.60;4.70;;;;;;;;;;5026592;28;20025;-79
2022/06/28 11:09:30;;;;;;;6.82;4.75;;;;;;;;;;5020603;28;20060;-79
2022/06/28 11:12:07;;;;;;;5.20;4.20;;;;;;;;;;4976813;28;20064;-80
2022/06/28 11:14:36;;;;;;;5.25;4.75;;;;;;;;;;5024415;28;20041;-79
2022/06/28 11:17:01;;;;;;;6.25;5.28;;;;;;;;;;5005630;28;20040;-80
2022/06/28 11:19:27;;;;;;;6.10;4.15;;;;;;;;;;4998263;28;20408;-81
2022/06/28 11:21:54;;;;;;;8.15;4.20;;;;;;;;;;4999539;28;20034;-81
2022/06/28 11:24:19;;;;;;;5.50;4.45;;;;;;;;;;4982547;28;20535;-80
2022/06/28 11:29:29;;;;;;;6.20;3.92;;;;;;;;;;4987868;28;20083;-80
2022/06/28 11:31:54;;;;;;;6.15;4.20;;;;;;;;;;5014363;28;20037;-81
2022/06/28 11:34:24;;;;;;;5.65;4.65;;;;;;;;;;5014196;28;20032;-80
2022/06/28 11:36:49;;;;;;;7.10;4.60;;;;;;;;;;4996407;28;20393;-80
2022/06/28 11:39:18;;;;;;;7.05;4.95;;;;;;;;;;5008813;28;20045;-79
2022/06/28 11:41:47;;;;;;;7.53;4.70;;;;;;;;;;5013787;28;20033;-79
2022/06/28 11:44:13;;;;;;;9.65;4.38;;;;;;;;;;5013787;28;20069;-78
2022/06/28 11:46:39;;;;;;;7.65;4.35;;;;;;;;;;4996447;28;20061;-79
2022/06/28 11:49:05;;;;;;;7.28;4.40;;;;;;;;;;5017154;28;20132;-79
2022/06/28 11:51:31;;;;;;;5.95;4.50;;;;;;;;;;5023410;28;20061;-81
2022/06/28 11:53:57;;;;;;;6.55;5.05;;;;;;;;;;5026041;28;20034;-79
2022/06/28 11:56:22;;;;;;;5.75;4.38;;;;;;;;;;4989256;28;20029;-80
2022/06/28 11:58:48;;;;;;;7.32;4.85;;;;;;;;;;5024715;28;20551;-79
2022/06/28 12:01:17;;;;;;;6.80;4.68;;;;;;;;;;5028528;28;20037;-79
2022/06/28 12:03:42;;;;;;;7.32;5.03;;;;;;;;;;5029272;28;20068;-80
2022/06/28 12:06:08;;;;;;;8.82;4.82;;;;;;;;;;5016597;28;20025;-80
2022/06/28 12:08:44;;;;;;;9.05;5.15;;;;;;;;;;4994054;28;20037;-80
2022/06/28 12:11:24;;;;;;;6.35;5.07;;;;;;;;;;5016763;28;20091;-80
2022/06/28 12:14:17;;;;;;;5.10;4.38;;;;;;;;;;5015516;28;20033;-80
2022/06/28 12:16:44;;;;;;;6.22;5.13;;;;;;;;;;4993428;28;20049;-78
2022/06/28 12:19:11;;;;;;;8.10;5.07;;;;;;;;;;5013475;28;20057;-80
2022/06/28 12:21:37;;;;;;;6.22;4.95;;;;;;;;;;5027104;28;20497;-80
2022/06/28 12:24:03;;;;;;;6.38;4.70;;;;;;;;;;5013902;28;20085;-81
2022/06/28 12:26:49;;;;;;;8.55;4.85;;;;;;;;;;5012569;28;20026;-79
2022/06/28 12:29:14;;;;;;;10.30;5.50;;;;;;;;;;5001935;28;20160;-81
2022/06/28 12:31:42;;;;;;;7.32;4.75;;;;;;;;;;5018925;28;20094;-80
2022/06/28 12:34:08;;;;;;;10.50;5.10;;;;;;;;;;5026316;28;20037;-80
2022/06/28 12:36:34;;;;;;;8.10;5.45;;;;;;;;;;5010579;28;20041;-80
2022/06/28 12:38:59;;;;;;;6.32;5.05;;;;;;;;;;5012809;28;20049;-79
2022/06/28 12:41:25;;;;;;;8.18;5.15;;;;;;;;;;5021202;28;20029;-81
2022/06/28 12:43:50;;;;;;;8.15;4.95;;;;;;;;;;5003205;28;20042;-81
2022/06/28 12:46:15;;;;;;;7.85;4.78;;;;;;;;;;5008805;28;20030;-80
2022/06/28 12:48:41;;;;;;;8.02;4.90;;;;;;;;;;5010967;28;20493;-81
2022/06/28 12:51:06;;;;;;;5.30;4.80;;;;;;;;;;5013974;28;20025;-80
2022/06/28 12:53:32;;;;;;;6.18;5.25;;;;;;;;;;5018970;28;20128;-80
2022/06/28 12:55:58;;;;;;;8.27;4.93;;;;;;;;;;5023678;28;20026;-84
2022/06/28 12:58:24;;;;;;;9.40;5.32;;;;;;;;;;4995854;28;20030;-80
2022/06/28 13:00:49;;;;;;;7.55;4.57;;;;;;;;;;5024632;28;20026;-81
2022/06/28 13:03:15;;;;;;;6.15;4.70;;;;;;;;;;5028259;28;20127;-79
2022/06/28 13:05:40;;;;;;;8.10;4.50;;;;;;;;;;4992081;28;20028;-80
2022/06/28 13:08:06;;;;;;;7.13;4.88;;;;;;;;;;5025064;28;20484;-80
2022/06/28 13:10:32;;;;;;;5.95;4.72;;;;;;;;;;5000197;28;20076;-80
2022/06/28 13:12:57;;;;;;;6.10;4.53;;;;;;;;;;5021388;28;20065;-79
2022/06/28 13:15:23;;;;;;;6.80;4.95;;;;;;;;;;5009172;28;20033;-79
2022/06/28 13:17:48;;;;;;;6.25;5.35;;;;;;;;;;4989257;28;20037;-80
2022/06/28 13:20:14;;;;;;;6.25;4.47;;;;;;;;;;5028831;28;20670;-80
2022/06/28 13:22:42;;;;;;;5.03;4.25;;;;;;;;;;5028230;28;20034;-81
2022/06/28 13:25:08;;;;;;;5.38;4.88;;;;;;;;;;5022651;28;20058;-79
2022/06/28 13:27:33;;;;;;;5.00;4.50;;;;;;;;;;4992235;28;20038;-81
2022/06/28 13:29:59;;;;;;;9.25;4.88;;;;;;;;;;5005770;28;20034;-83
2022/06/28 13:32:24;;;;;;;5.18;4.60;;;;;;;;;;5026014;28;20034;-80
2022/06/28 13:34:49;;;;;;;7.30;4.85;;;;;;;;;;4998016;28;20068;-81
2022/06/28 13:37:15;;;;;;;8.50;4.63;;;;;;;;;;5021403;28;20039;-81
2022/06/28 13:39:41;;;;;;;5.57;4.10;;;;;;;;;;5002948;28;20029;-80
2022/06/28 13:42:07;;;;;;;7.38;4.40;;;;;;;;;;5002116;28;20038;-79
2022/06/28 13:44:33;;;;;;;6.82;4.20;;;;;;;;;;5003025;28;20080;-81
2022/06/28 13:46:59;;;;;;;7.75;5.97;;;;;;;;;;4996850;28;20038;-80
2022/06/28 13:49:25;;;;;;;8.50;4.47;;;;;;;;;;5015386;28;20413;-79
2022/06/28 13:51:50;;;;;;;5.32;4.35;;;;;;;;;;5013710;28;20477;-80
2022/06/28 13:54:15;;;;;;;7.13;4.43;;;;;;;;;;5000379;28;20037;-79
2022/06/28 13:56:41;;;;;;;6.90;4.47;;;;;;;;;;5014929;28;20036;-81
2022/06/28 13:59:06;;;;;;;6.78;4.80;;;;;;;;;;5010096;28;20100;-79
2022/06/28 14:01:32;;;;;;;7.18;4.63;;;;;;;;;;5005693;28;20105;-80
2022/06/28 14:03:57;;;;;;;4.97;4.40;;;;;;;;;;5027516;28;20034;-83
2022/06/28 14:06:23;;;;;;;5.18;4.38;;;;;;;;;;4990156;28;20448;-80
2022/06/28 14:08:48;;;;;;;6.15;4.65;;;;;;;;;;4978556;28;20029;-81
2022/06/28 14:11:14;;;;;;;6.25;4.35;;;;;;;;;;5011384;28;20034;-79
2022/06/28 14:13:41;;;;;;;6.93;4.30;;;;;;;;;;4995035;28;20517;-81
2022/06/28 14:16:07;;;;;;;9.25;4.72;;;;;;;;;;4995381;28;20126;-80
2022/06/28 14:18:32;;;;;;;6.93;4.50;;;;;;;;;;4994896;28;20555;-79
2022/06/28 14:20:58;;;;;;;5.88;4.10;;;;;;;;;;5010493;28;20132;-79
2022/06/28 14:23:23;;;;;;;5.95;4.25;;;;;;;;;;5010860;28;20389;-80
2022/06/28 14:25:49;;;;;;;5.63;4.32;;;;;;;;;;5019350;28;20058;-79
2022/06/28 14:28:14;;;;;;;7.53;5.35;;;;;;;;;;4998132;28;20113;-81
2022/06/28 14:30:40;;;;;;;6.25;4.18;;;;;;;;;;4997348;28;20125;-80
2022/06/28 14:33:05;;;;;;;6.25;4.40;;;;;;;;;;5015401;28;20057;-80
2022/06/28 14:35:32;;;;;;;8.77;4.78;;;;;;;;;;4998020;28;20037;-80
2022/06/28 14:37:57;;;;;;;9.13;4.20;;;;;;;;;;5014992;28;20584;-80
2022/06/28 14:40:23;;;;;;;10.38;4.55;;;;;;;;;;5015579;28;20121;-80
2022/06/28 14:42:48;;;;;;;9.20;4.63;;;;;;;;;;4997999;28;20111;-82
2022/06/28 14:45:13;;;;;;;8.40;4.28;;;;;;;;;;5018370;28;20391;-80
2022/06/28 14:47:39;;;;;;;8.23;4.65;;;;;;;;;;5013639;28;20544;-79
2022/06/28 14:50:06;;;;;;;9.48;4.45;;;;;;;;;;5028120;28;20044;-79
2022/06/28 14:52:31;;;;;;;8.05;4.03;;;;;;;;;;4999036;28;20033;-82
2022/06/28 14:54:57;;;;;;;8.07;4.20;;;;;;;;;;5003892;28;20046;-78
2022/06/28 14:57:22;;;;;;;6.78;4.30;;;;;;;;;;5026099;28;20065;-79